sensor_id;sensor_type;location;lat;lon;timestamp;pressure;altitude;pressure_sealevel;temperature;humidity
48862;BME280;34681;49.188;-0.374;2023-11-19T00:00:31;101239.03;;;15.93;81.13
48862;BME280;34681;49.188;-0.374;2023-11-19T00:02:56;101235.78;;;15.98;80.76
48862;BME280;34681;49.188;-0.374;2023-11-19T00:05:21;101239.69;;;15.87;80.85
48862;BME280;34681;49.188;-0.374;2023-11-19T00:07:47;101234.53;;;15.84;80.69
48862;BME280;34681;49.188;-0.374;2023-11-19T00:10:14;101237.75;;;15.71;80.96
48862;BME280;34681;49.188;-0.374;2023-11-19T00:12:43;101240.03;;;15.76;81.18
48862;BME280;34681;49.188;-0.374;2023-11-19T00:15:09;101232.41;;;15.62;81.11
48862;BME280;34681;49.188;-0.374;2023-11-19T00:17:37;101230.53;;;15.70;80.98
48862;BME280;34681;49.188;-0.374;2023-11-19T00:20:05;101236.91;;;15.71;80.85
48862;BME280;34681;49.188;-0.374;2023-11-19T00:22:31;101228.41;;;15.56;80.79
48862;BME280;34681;49.188;-0.374;2023-11-19T00:24:56;101241.75;;;15.77;80.22
48862;BME280;34681;49.188;-0.374;2023-11-19T00:27:22;101240.50;;;15.63;80.67
48862;BME280;34681;49.188;-0.374;2023-11-19T00:29:47;101242.56;;;15.61;80.88
48862;BME280;34681;49.188;-0.374;2023-11-19T00:32:12;101246.00;;;15.63;80.39
48862;BME280;34681;49.188;-0.374;2023-11-19T00:34:38;101243.91;;;15.57;80.51
48862;BME280;34681;49.188;-0.374;2023-11-19T00:37:03;101249.97;;;15.61;80.39
48862;BME280;34681;49.188;-0.374;2023-11-19T00:39:29;101243.00;;;15.40;80.86
48862;BME280;34681;49.188;-0.374;2023-11-19T00:41:54;101234.72;;;15.40;80.92
48862;BME280;34681;49.188;-0.374;2023-11-19T00:44:19;101239.47;;;15.30;81.25
48862;BME280;34681;49.188;-0.374;2023-11-19T00:46:45;101239.81;;;15.27;81.49
48862;BME280;34681;49.188;-0.374;2023-11-19T00:49:10;101230.53;;;15.28;81.11
48862;BME280;34681;49.188;-0.374;2023-11-19T00:51:36;101238.63;;;15.30;80.68
48862;BME280;34681;49.188;-0.374;2023-11-19T00:54:03;101237.63;;;15.31;81.01
48862;BME280;34681;49.188;-0.374;2023-11-19T00:56:28;101240.38;;;15.39;80.43
48862;BME280;34681;49.188;-0.374;2023-11-19T00:58:54;101242.81;;;15.42;80.24
48862;BME280;34681;49.188;-0.374;2023-11-19T01:01:19;101232.69;;;15.51;79.89
48862;BME280;34681;49.188;-0.374;2023-11-19T01:03:44;101235.25;;;15.44;79.93
48862;BME280;34681;49.188;-0.374;2023-11-19T01:06:10;101236.59;;;15.32;80.75
48862;BME280;34681;49.188;-0.374;2023-11-19T01:08:35;101236.91;;;15.29;80.72
48862;BME280;34681;49.188;-0.374;2023-11-19T01:11:01;101241.38;;;15.30;80.80
48862;BME280;34681;49.188;-0.374;2023-11-19T01:13:27;101247.75;;;15.30;80.81
48862;BME280;34681;49.188;-0.374;2023-11-19T01:15:52;101250.41;;;15.40;80.29
48862;BME280;34681;49.188;-0.374;2023-11-19T01:18:18;101250.25;;;15.50;79.97
48862;BME280;34681;49.188;-0.374;2023-11-19T01:20:43;101251.78;;;15.44;80.19
48862;BME280;34681;49.188;-0.374;2023-11-19T01:23:08;101255.88;;;15.32;80.32
48862;BME280;34681;49.188;-0.374;2023-11-19T01:25:34;101255.88;;;15.32;80.56
48862;BME280;34681;49.188;-0.374;2023-11-19T01:28:00;101245.34;;;15.27;80.40
48862;BME280;34681;49.188;-0.374;2023-11-19T01:30:27;101250.72;;;15.37;80.26
48862;BME280;34681;49.188;-0.374;2023-11-19T01:32:53;101246.47;;;15.51;79.34
48862;BME280;34681;49.188;-0.374;2023-11-19T01:35:18;101261.47;;;15.48;79.87
48862;BME280;34681;49.188;-0.374;2023-11-19T01:37:43;101251.13;;;15.50;79.42
48862;BME280;34681;49.188;-0.374;2023-11-19T01:40:09;101256.78;;;15.40;79.36
48862;BME280;34681;49.188;-0.374;2023-11-19T01:42:40;101254.53;;;15.44;79.52
48862;BME280;34681;49.188;-0.374;2023-11-19T01:45:06;101254.53;;;15.44;79.35
48862;BME280;34681;49.188;-0.374;2023-11-19T01:47:34;101263.28;;;15.31;79.68
48862;BME280;34681;49.188;-0.374;2023-11-19T01:50:01;101255.31;;;15.28;79.60
48862;BME280;34681;49.188;-0.374;2023-11-19T01:52:28;101259.75;;;15.55;79.08
48862;BME280;34681;49.188;-0.374;2023-11-19T01:54:54;101261.44;;;15.40;79.32
48862;BME280;34681;49.188;-0.374;2023-11-19T01:57:22;101268.19;;;15.54;79.35
48862;BME280;34681;49.188;-0.374;2023-11-19T01:59:50;101262.38;;;15.57;78.92
48862;BME280;34681;49.188;-0.374;2023-11-19T02:02:16;101261.31;;;15.58;78.96
48862;BME280;34681;49.188;-0.374;2023-11-19T02:04:46;101263.03;;;15.51;78.83
48862;BME280;34681;49.188;-0.374;2023-11-19T02:07:13;101261.59;;;15.46;78.35
48862;BME280;34681;49.188;-0.374;2023-11-19T02:09:42;101253.19;;;15.48;78.49
48862;BME280;34681;49.188;-0.374;2023-11-19T02:12:07;101261.22;;;15.33;78.61
48862;BME280;34681;49.188;-0.374;2023-11-19T02:14:33;101261.50;;;15.22;78.71
48862;BME280;34681;49.188;-0.374;2023-11-19T02:16:58;101265.72;;;15.34;78.27
48862;BME280;34681;49.188;-0.374;2023-11-19T02:19:23;101272.69;;;15.21;78.31
48862;BME280;34681;49.188;-0.374;2023-11-19T02:21:49;101263.03;;;15.16;78.65
48862;BME280;34681;49.188;-0.374;2023-11-19T02:24:16;101262.44;;;15.05;78.59
48862;BME280;34681;49.188;-0.374;2023-11-19T02:29:11;101267.75;;;14.98;78.51
48862;BME280;34681;49.188;-0.374;2023-11-19T02:31:37;101265.91;;;14.81;78.70
48862;BME280;34681;49.188;-0.374;2023-11-19T02:34:03;101270.66;;;14.71;79.20
48862;BME280;34681;49.188;-0.374;2023-11-19T02:36:28;101274.06;;;14.65;79.42
48862;BME280;34681;49.188;-0.374;2023-11-19T02:38:54;101270.28;;;14.66;78.90
48862;BME280;34681;49.188;-0.374;2023-11-19T02:41:20;101262.78;;;14.76;78.70
48862;BME280;34681;49.188;-0.374;2023-11-19T02:43:45;101255.91;;;14.80;78.32
48862;BME280;34681;49.188;-0.374;2023-11-19T02:46:14;101253.50;;;14.77;78.00
48862;BME280;34681;49.188;-0.374;2023-11-19T02:48:39;101246.19;;;14.68;78.28
48862;BME280;34681;49.188;-0.374;2023-11-19T02:51:05;101234.69;;;14.72;77.99
48862;BME280;34681;49.188;-0.374;2023-11-19T02:53:34;101231.06;;;14.72;77.58
48862;BME280;34681;49.188;-0.374;2023-11-19T02:55:59;101234.16;;;14.69;77.65
48862;BME280;34681;49.188;-0.374;2023-11-19T02:58:37;101225.19;;;14.67;77.54
48862;BME280;34681;49.188;-0.374;2023-11-19T03:01:04;101238.22;;;14.56;77.82
48862;BME280;34681;49.188;-0.374;2023-11-19T03:03:38;101237.19;;;14.57;77.50
48862;BME280;34681;49.188;-0.374;2023-11-19T03:06:05;101243.03;;;14.63;77.23
48862;BME280;34681;49.188;-0.374;2023-11-19T03:08:31;101230.94;;;14.73;77.05
48862;BME280;34681;49.188;-0.374;2023-11-19T03:10:57;101245.28;;;14.59;76.91
48862;BME280;34681;49.188;-0.374;2023-11-19T03:13:24;101253.63;;;14.49;77.17
48862;BME280;34681;49.188;-0.374;2023-11-19T03:15:49;101264.50;;;14.51;77.35
48862;BME280;34681;49.188;-0.374;2023-11-19T03:18:16;101265.81;;;14.47;77.23
48862;BME280;34681;49.188;-0.374;2023-11-19T03:20:42;101262.97;;;14.39;77.24
48862;BME280;34681;49.188;-0.374;2023-11-19T03:23:07;101262.25;;;14.37;77.32
48862;BME280;34681;49.188;-0.374;2023-11-19T03:25:32;101265.09;;;14.45;77.24
48862;BME280;34681;49.188;-0.374;2023-11-19T03:28:03;101263.00;;;14.56;76.84
48862;BME280;34681;49.188;-0.374;2023-11-19T03:30:29;101259.50;;;14.54;77.10
48862;BME280;34681;49.188;-0.374;2023-11-19T03:32:55;101259.44;;;14.46;77.09
48862;BME280;34681;49.188;-0.374;2023-11-19T03:35:21;101255.44;;;14.41;76.63
48862;BME280;34681;49.188;-0.374;2023-11-19T03:37:46;101259.56;;;14.45;76.86
48862;BME280;34681;49.188;-0.374;2023-11-19T03:40:12;101254.81;;;14.47;76.63
48862;BME280;34681;49.188;-0.374;2023-11-19T03:42:37;101251.47;;;14.43;76.76
48862;BME280;34681;49.188;-0.374;2023-11-19T03:45:05;101252.28;;;14.36;76.87
48862;BME280;34681;49.188;-0.374;2023-11-19T03:47:32;101252.44;;;14.34;76.75
48862;BME280;34681;49.188;-0.374;2023-11-19T03:49:57;101252.75;;;14.31;76.91
48862;BME280;34681;49.188;-0.374;2023-11-19T03:52:22;101241.44;;;14.34;77.40
48862;BME280;34681;49.188;-0.374;2023-11-19T03:54:48;101250.63;;;14.43;76.27
48862;BME280;34681;49.188;-0.374;2023-11-19T03:57:13;101251.66;;;14.42;76.13
48862;BME280;34681;49.188;-0.374;2023-11-19T03:59:39;101246.78;;;14.36;76.33
48862;BME280;34681;49.188;-0.374;2023-11-19T04:02:05;101254.97;;;14.45;75.98
48862;BME280;34681;49.188;-0.374;2023-11-19T04:04:30;101250.09;;;14.57;75.42
48862;BME280;34681;49.188;-0.374;2023-11-19T04:06:56;101244.94;;;14.44;75.63
48862;BME280;34681;49.188;-0.374;2023-11-19T04:09:21;101252.81;;;14.39;75.78
48862;BME280;34681;49.188;-0.374;2023-11-19T04:11:47;101258.81;;;14.34;75.91
48862;BME280;34681;49.188;-0.374;2023-11-19T04:14:13;101248.59;;;14.27;75.86
48862;BME280;34681;49.188;-0.374;2023-11-19T04:16:39;101248.75;;;14.25;75.61
48862;BME280;34681;49.188;-0.374;2023-11-19T04:19:04;101254.56;;;14.22;75.75
48862;BME280;34681;49.188;-0.374;2023-11-19T04:21:30;101249.06;;;14.04;76.36
48862;BME280;34681;49.188;-0.374;2023-11-19T04:23:56;101251.59;;;14.16;76.22
48862;BME280;34681;49.188;-0.374;2023-11-19T04:26:21;101256.31;;;14.23;76.00
48862;BME280;34681;49.188;-0.374;2023-11-19T04:28:46;101247.97;;;14.33;75.24
48862;BME280;34681;49.188;-0.374;2023-11-19T04:31:11;101248.34;;;14.20;75.24
48862;BME280;34681;49.188;-0.374;2023-11-19T04:33:37;101254.97;;;14.10;75.98
48862;BME280;34681;49.188;-0.374;2023-11-19T04:36:02;101248.19;;;14.04;75.88
48862;BME280;34681;49.188;-0.374;2023-11-19T04:38:28;101262.13;;;14.02;75.79
48862;BME280;34681;49.188;-0.374;2023-11-19T04:40:53;101263.69;;;14.05;76.04
48862;BME280;34681;49.188;-0.374;2023-11-19T04:43:18;101270.22;;;14.04;75.87
48862;BME280;34681;49.188;-0.374;2023-11-19T04:45:45;101268.47;;;14.03;75.64
48862;BME280;34681;49.188;-0.374;2023-11-19T04:48:11;101264.16;;;14.00;75.84
48862;BME280;34681;49.188;-0.374;2023-11-19T04:50:37;101265.91;;;14.01;75.67
48862;BME280;34681;49.188;-0.374;2023-11-19T04:53:03;101258.25;;;13.95;75.83
48862;BME280;34681;49.188;-0.374;2023-11-19T04:55:28;101268.00;;;13.90;75.53
48862;BME280;34681;49.188;-0.374;2023-11-19T04:57:54;101273.50;;;13.90;76.05
48862;BME280;34681;49.188;-0.374;2023-11-19T05:00:19;101277.94;;;14.00;75.79
48862;BME280;34681;49.188;-0.374;2023-11-19T05:02:46;101286.50;;;14.15;75.40
48862;BME280;34681;49.188;-0.374;2023-11-19T05:05:12;101275.97;;;14.11;75.18
48862;BME280;34681;49.188;-0.374;2023-11-19T05:07:37;101276.97;;;13.92;75.40
48862;BME280;34681;49.188;-0.374;2023-11-19T05:10:03;101269.34;;;13.86;75.87
48862;BME280;34681;49.188;-0.374;2023-11-19T05:12:29;101274.69;;;13.87;76.06
48862;BME280;34681;49.188;-0.374;2023-11-19T05:14:54;101274.94;;;13.94;75.94
48862;BME280;34681;49.188;-0.374;2023-11-19T05:17:20;101269.97;;;13.97;76.03
48862;BME280;34681;49.188;-0.374;2023-11-19T05:19:46;101272.66;;;14.07;75.77
48862;BME280;34681;49.188;-0.374;2023-11-19T05:22:12;101281.94;;;14.24;75.35
48862;BME280;34681;49.188;-0.374;2023-11-19T05:24:38;101282.41;;;14.19;75.11
48862;BME280;34681;49.188;-0.374;2023-11-19T05:27:04;101283.88;;;14.14;75.10
48862;BME280;34681;49.188;-0.374;2023-11-19T05:29:30;101286.63;;;14.14;74.87
48862;BME280;34681;49.188;-0.374;2023-11-19T05:31:55;101275.97;;;14.11;74.45
48862;BME280;34681;49.188;-0.374;2023-11-19T05:34:20;101268.47;;;14.03;75.16
48862;BME280;34681;49.188;-0.374;2023-11-19T05:36:46;101265.72;;;14.03;74.89
48862;BME280;34681;49.188;-0.374;2023-11-19T05:39:11;101273.56;;;13.98;75.21
48862;BME280;34681;49.188;-0.374;2023-11-19T05:41:37;101273.91;;;13.95;75.26
48862;BME280;34681;49.188;-0.374;2023-11-19T05:44:02;101266.25;;;13.89;74.94
48862;BME280;34681;49.188;-0.374;2023-11-19T05:46:27;101266.16;;;13.81;75.32
48862;BME280;34681;49.188;-0.374;2023-11-19T05:48:53;101265.09;;;13.91;75.08
48862;BME280;34681;49.188;-0.374;2023-11-19T05:51:18;101268.16;;;13.88;75.25
48862;BME280;34681;49.188;-0.374;2023-11-19T05:53:44;101275.78;;;13.94;75.03
48862;BME280;34681;49.188;-0.374;2023-11-19T05:56:11;101270.59;;;13.91;74.75
48862;BME280;34681;49.188;-0.374;2023-11-19T05:58:36;101275.50;;;14.15;73.85
48862;BME280;34681;49.188;-0.374;2023-11-19T06:01:02;101280.44;;;13.94;74.55
48862;BME280;34681;49.188;-0.374;2023-11-19T06:03:28;101276.81;;;13.93;74.93
48862;BME280;34681;49.188;-0.374;2023-11-19T06:05:54;101280.09;;;13.97;74.55
48862;BME280;34681;49.188;-0.374;2023-11-19T06:08:19;101280.34;;;13.86;74.91
48862;BME280;34681;49.188;-0.374;2023-11-19T06:10:46;101280.25;;;13.77;75.14
48862;BME280;34681;49.188;-0.374;2023-11-19T06:13:12;101280.78;;;13.81;75.04
48862;BME280;34681;49.188;-0.374;2023-11-19T06:15:37;101268.19;;;13.61;75.56
48862;BME280;34681;49.188;-0.374;2023-11-19T06:18:03;101271.44;;;13.74;74.94
48862;BME280;34681;49.188;-0.374;2023-11-19T06:20:32;101287.22;;;13.72;75.23
48862;BME280;34681;49.188;-0.374;2023-11-19T06:22:58;101280.16;;;13.69;75.22
48862;BME280;34681;49.188;-0.374;2023-11-19T06:25:23;101282.59;;;13.72;75.03
48862;BME280;34681;49.188;-0.374;2023-11-19T06:27:52;101291.34;;;13.86;74.92
48862;BME280;34681;49.188;-0.374;2023-11-19T06:30:18;101280.44;;;13.94;74.45
48862;BME280;34681;49.188;-0.374;2023-11-19T06:32:44;101287.13;;;13.91;74.40
48862;BME280;34681;49.188;-0.374;2023-11-19T06:35:09;101280.66;;;13.83;74.81
48862;BME280;34681;49.188;-0.374;2023-11-19T06:37:38;101279.06;;;13.80;74.86
48862;BME280;34681;49.188;-0.374;2023-11-19T06:40:03;101283.94;;;13.68;75.51
48862;BME280;34681;49.188;-0.374;2023-11-19T06:42:30;101270.38;;;13.85;75.09
48862;BME280;34681;49.188;-0.374;2023-11-19T06:44:55;101273.72;;;13.78;75.11
48862;BME280;34681;49.188;-0.374;2023-11-19T06:47:22;101269.25;;;13.95;74.66
48862;BME280;34681;49.188;-0.374;2023-11-19T06:49:47;101272.00;;;13.77;74.94
48862;BME280;34681;49.188;-0.374;2023-11-19T06:52:12;101270.00;;;13.70;75.18
48862;BME280;34681;49.188;-0.374;2023-11-19T06:54:39;101266.41;;;13.69;75.22
48862;BME280;34681;49.188;-0.374;2023-11-19T06:57:04;101265.00;;;13.65;75.11
48862;BME280;34681;49.188;-0.374;2023-11-19T06:59:30;101270.63;;;13.64;75.57
48862;BME280;34681;49.188;-0.374;2023-11-19T07:01:56;101272.88;;;13.51;75.96
48862;BME280;34681;49.188;-0.374;2023-11-19T07:04:21;101265.88;;;13.66;75.66
48862;BME280;34681;49.188;-0.374;2023-11-19T07:06:46;101265.38;;;13.70;75.32
48862;BME280;34681;49.188;-0.374;2023-11-19T07:09:13;101269.25;;;13.77;75.14
48862;BME280;34681;49.188;-0.374;2023-11-19T07:11:39;101263.41;;;13.63;75.47
48862;BME280;34681;49.188;-0.374;2023-11-19T07:14:05;101264.69;;;13.68;75.56
48862;BME280;34681;49.188;-0.374;2023-11-19T07:16:35;101264.69;;;13.68;75.40
48862;BME280;34681;49.188;-0.374;2023-11-19T07:19:02;101272.06;;;13.68;75.64
48862;BME280;34681;49.188;-0.374;2023-11-19T07:21:28;101263.72;;;13.60;75.74
48862;BME280;34681;49.188;-0.374;2023-11-19T07:23:54;101265.50;;;13.51;76.10
48862;BME280;34681;49.188;-0.374;2023-11-19T07:26:19;101268.91;;;13.63;75.85
48862;BME280;34681;49.188;-0.374;2023-11-19T07:28:44;101267.16;;;13.62;75.77
48862;BME280;34681;49.188;-0.374;2023-11-19T07:31:10;101260.75;;;13.71;75.67
48862;BME280;34681;49.188;-0.374;2023-11-19T07:33:36;101258.50;;;13.57;76.10
48862;BME280;34681;49.188;-0.374;2023-11-19T07:36:01;101258.38;;;13.58;75.86
48862;BME280;34681;49.188;-0.374;2023-11-19T07:38:26;101254.28;;;13.62;76.10
48862;BME280;34681;49.188;-0.374;2023-11-19T07:40:52;101260.84;;;13.79;75.61
48862;BME280;34681;49.188;-0.374;2023-11-19T07:43:17;101260.84;;;13.79;75.36
48862;BME280;34681;49.188;-0.374;2023-11-19T07:45:42;101261.59;;;13.71;75.74
48862;BME280;34681;49.188;-0.374;2023-11-19T07:48:11;101258.56;;;13.74;75.83
48862;BME280;34681;49.188;-0.374;2023-11-19T07:50:39;101267.09;;;13.71;75.56
48862;BME280;34681;49.188;-0.374;2023-11-19T07:53:06;101264.28;;;13.81;75.44
48862;BME280;34681;49.188;-0.374;2023-11-19T07:55:31;101268.25;;;13.96;74.85
48862;BME280;34681;49.188;-0.374;2023-11-19T07:57:56;101269.50;;;13.84;75.58
48862;BME280;34681;49.188;-0.374;2023-11-19T08:00:21;101264.63;;;13.96;75.22
48862;BME280;34681;49.188;-0.374;2023-11-19T08:02:47;101276.38;;;14.16;74.55
48862;BME280;34681;49.188;-0.374;2023-11-19T08:05:12;101270.44;;;14.28;74.04
48862;BME280;34681;49.188;-0.374;2023-11-19T08:07:37;101274.69;;;14.23;74.12
48862;BME280;34681;49.188;-0.374;2023-11-19T08:10:04;101281.22;;;14.22;74.44
48862;BME280;34681;49.188;-0.374;2023-11-19T08:12:30;101283.00;;;14.31;73.86
48862;BME280;34681;49.188;-0.374;2023-11-19T08:14:56;101282.97;;;14.58;72.78
48862;BME280;34681;49.188;-0.374;2023-11-19T08:17:23;101277.22;;;14.52;72.80
48862;BME280;34681;49.188;-0.374;2023-11-19T08:19:49;101273.94;;;14.48;73.03
48862;BME280;34681;49.188;-0.374;2023-11-19T08:22:14;101281.75;;;14.43;73.21
48862;BME280;34681;49.188;-0.374;2023-11-19T08:24:39;101291.06;;;14.42;73.08
48862;BME280;34681;49.188;-0.374;2023-11-19T08:27:04;101292.88;;;14.51;72.89
48862;BME280;34681;49.188;-0.374;2023-11-19T08:29:30;101294.59;;;14.52;73.15
48862;BME280;34681;49.188;-0.374;2023-11-19T08:31:55;101298.56;;;14.50;73.23
48862;BME280;34681;49.188;-0.374;2023-11-19T08:34:20;101306.63;;;14.69;72.61
48862;BME280;34681;49.188;-0.374;2023-11-19T08:36:50;101308.56;;;14.77;72.47
48862;BME280;34681;49.188;-0.374;2023-11-19T08:39:15;101311.28;;;14.95;71.87
48862;BME280;34681;49.188;-0.374;2023-11-19T08:41:40;101315.91;;;14.68;72.07
48862;BME280;34681;49.188;-0.374;2023-11-19T08:44:06;101313.63;;;14.81;71.83
48862;BME280;34681;49.188;-0.374;2023-11-19T08:46:32;101313.47;;;14.83;72.00
48862;BME280;34681;49.188;-0.374;2023-11-19T08:48:57;101314.03;;;14.95;71.70
48862;BME280;34681;49.188;-0.374;2023-11-19T08:51:23;101305.94;;;14.93;71.52
48862;BME280;34681;49.188;-0.374;2023-11-19T08:53:50;101299.13;;;15.05;71.59
48862;BME280;34681;49.188;-0.374;2023-11-19T08:56:15;101297.09;;;15.07;71.18
48862;BME280;34681;49.188;-0.374;2023-11-19T08:58:40;101309.38;;;15.21;71.00
48862;BME280;34681;49.188;-0.374;2023-11-19T09:01:06;101306.31;;;15.24;70.84
48862;BME280;34681;49.188;-0.374;2023-11-19T09:03:31;101307.59;;;15.38;70.46
48862;BME280;34681;49.188;-0.374;2023-11-19T09:05:57;101298.66;;;15.44;70.20
48862;BME280;34681;49.188;-0.374;2023-11-19T09:08:22;101306.16;;;15.26;70.55
48862;BME280;34681;49.188;-0.374;2023-11-19T09:10:47;101295.16;;;15.34;70.36
48862;BME280;34681;49.188;-0.374;2023-11-19T09:13:13;101295.56;;;15.47;69.62
48862;BME280;34681;49.188;-0.374;2023-11-19T09:15:38;101300.22;;;15.46;69.55
48862;BME280;34681;49.188;-0.374;2023-11-19T09:18:04;101295.50;;;15.31;69.98
48862;BME280;34681;49.188;-0.374;2023-11-19T09:20:29;101308.44;;;15.38;69.73
48862;BME280;34681;49.188;-0.374;2023-11-19T09:23:02;101297.09;;;15.41;69.93
48862;BME280;34681;49.188;-0.374;2023-11-19T09:25:28;101304.03;;;15.54;69.42
48862;BME280;34681;49.188;-0.374;2023-11-19T09:27:53;101307.34;;;15.57;69.56
48862;BME280;34681;49.188;-0.374;2023-11-19T09:30:19;101304.69;;;15.73;69.04
48862;BME280;34681;49.188;-0.374;2023-11-19T09:32:44;101309.03;;;15.84;68.97
48862;BME280;34681;49.188;-0.374;2023-11-19T09:35:09;101307.75;;;16.29;68.34
48862;BME280;34681;49.188;-0.374;2023-11-19T09:37:38;101305.75;;;16.80;66.91
48862;BME280;34681;49.188;-0.374;2023-11-19T09:40:04;101320.44;;;16.80;66.31
48862;BME280;34681;49.188;-0.374;2023-11-19T09:42:33;101318.31;;;16.58;66.79
48862;BME280;34681;49.188;-0.374;2023-11-19T09:45:13;101323.16;;;16.48;66.98
48862;BME280;34681;49.188;-0.374;2023-11-19T09:47:39;101317.44;;;16.41;67.27
48862;BME280;34681;49.188;-0.374;2023-11-19T09:50:05;101325.06;;;16.55;66.89
48862;BME280;34681;49.188;-0.374;2023-11-19T09:52:31;101314.19;;;16.87;66.38
48862;BME280;34681;49.188;-0.374;2023-11-19T09:54:56;101324.38;;;17.02;66.09
48862;BME280;34681;49.188;-0.374;2023-11-19T09:57:21;101319.38;;;17.06;66.17
48862;BME280;34681;49.188;-0.374;2023-11-19T09:59:47;101309.13;;;17.31;64.18
48862;BME280;34681;49.188;-0.374;2023-11-19T10:02:13;101329.03;;;17.02;64.99
48862;BME280;34681;49.188;-0.374;2023-11-19T10:04:40;101324.91;;;16.90;65.06
48862;BME280;34681;49.188;-0.374;2023-11-19T10:07:07;101326.63;;;16.99;64.95
48862;BME280;34681;49.188;-0.374;2023-11-19T10:09:33;101325.59;;;17.00;64.53
48862;BME280;34681;49.188;-0.374;2023-11-19T10:11:59;101322.66;;;16.93;64.96
48862;BME280;34681;49.188;-0.374;2023-11-19T10:14:25;101322.13;;;17.14;64.69
48862;BME280;34681;49.188;-0.374;2023-11-19T10:16:50;101311.47;;;17.50;63.69
48862;BME280;34681;49.188;-0.374;2023-11-19T10:19:19;101317.69;;;17.44;63.87
48862;BME280;34681;49.188;-0.374;2023-11-19T10:21:48;101315.81;;;17.36;63.67
48862;BME280;34681;49.188;-0.374;2023-11-19T10:24:13;101310.78;;;17.48;63.18
48862;BME280;34681;49.188;-0.374;2023-11-19T10:26:40;101318.16;;;17.72;62.31
48862;BME280;34681;49.188;-0.374;2023-11-19T10:29:05;101317.16;;;17.57;62.71
48862;BME280;34681;49.188;-0.374;2023-11-19T10:31:30;101320.38;;;17.68;62.75
48862;BME280;34681;49.188;-0.374;2023-11-19T10:33:56;101319.34;;;17.78;62.44
48862;BME280;34681;49.188;-0.374;2023-11-19T10:36:22;101306.25;;;17.72;62.10
48862;BME280;34681;49.188;-0.374;2023-11-19T10:38:56;101318.81;;;17.82;62.03
48862;BME280;34681;49.188;-0.374;2023-11-19T10:41:28;101330.16;;;18.27;61.22
48862;BME280;34681;49.188;-0.374;2023-11-19T10:43:53;101327.38;;;18.27;61.02
48862;BME280;34681;49.188;-0.374;2023-11-19T10:46:19;101323.78;;;18.18;61.00
48862;BME280;34681;49.188;-0.374;2023-11-19T10:48:48;101318.53;;;18.31;60.28
48862;BME280;34681;49.188;-0.374;2023-11-19T10:51:18;101316.31;;;18.49;59.91
48862;BME280;34681;49.188;-0.374;2023-11-19T10:53:49;101315.13;;;18.44;59.54
48862;BME280;34681;49.188;-0.374;2023-11-19T10:56:16;101322.25;;;18.15;59.87
48862;BME280;34681;49.188;-0.374;2023-11-19T10:58:44;101313.38;;;17.97;60.05
48862;BME280;34681;49.188;-0.374;2023-11-19T11:01:16;101311.31;;;17.91;60.52
48862;BME280;34681;49.188;-0.374;2023-11-19T11:03:44;101321.75;;;17.81;60.71
48862;BME280;34681;49.188;-0.374;2023-11-19T11:06:12;101316.59;;;17.61;61.25
48862;BME280;34681;49.188;-0.374;2023-11-19T11:08:39;101313.34;;;17.58;61.35
48862;BME280;34681;49.188;-0.374;2023-11-19T11:11:05;101306.22;;;18.03;59.46
48862;BME280;34681;49.188;-0.374;2023-11-19T11:13:31;101311.91;;;18.09;59.30
48862;BME280;34681;49.188;-0.374;2023-11-19T11:15:58;101315.13;;;18.44;58.83
48862;BME280;34681;49.188;-0.374;2023-11-19T11:18:24;101311.63;;;18.50;58.45
48862;BME280;34681;49.188;-0.374;2023-11-19T11:20:57;101286.44;;;18.60;58.24
48862;BME280;34681;49.188;-0.374;2023-11-19T11:32:47;101303.31;;;18.27;59.22
48862;BME280;34681;49.188;-0.374;2023-11-19T11:37:55;101293.66;;;18.46;58.83
48862;BME280;34681;49.188;-0.374;2023-11-19T11:40:23;101293.41;;;18.33;58.85
48862;BME280;34681;49.188;-0.374;2023-11-19T11:42:48;101302.59;;;18.56;58.54
48862;BME280;34681;49.188;-0.374;2023-11-19T11:45:14;101303.31;;;18.96;57.31
48862;BME280;34681;49.188;-0.374;2023-11-19T11:50:17;101290.78;;;19.00;57.28
48862;BME280;34681;49.188;-0.374;2023-11-19T11:55:35;101279.72;;;18.77;57.36
48862;BME280;34681;49.188;-0.374;2023-11-19T11:58:07;101292.81;;;18.68;57.94
48862;BME280;34681;49.188;-0.374;2023-11-19T12:00:38;101286.13;;;18.77;57.26
48862;BME280;34681;49.188;-0.374;2023-11-19T12:03:05;101281.38;;;18.71;57.03
48862;BME280;34681;49.188;-0.374;2023-11-19T12:05:32;101288.22;;;18.52;57.13
48862;BME280;34681;49.188;-0.374;2023-11-19T12:08:06;101278.19;;;18.51;57.09
48862;BME280;34681;49.188;-0.374;2023-11-19T12:13:13;101291.50;;;18.56;56.95
48862;BME280;34681;49.188;-0.374;2023-11-19T12:18:29;101285.97;;;18.33;58.25
48862;BME280;34681;49.188;-0.374;2023-11-19T12:20:56;101279.47;;;18.18;57.89
48862;BME280;34681;49.188;-0.374;2023-11-19T12:23:25;101293.16;;;18.19;58.41
48862;BME280;34681;49.188;-0.374;2023-11-19T12:25:51;101290.78;;;18.39;57.87
48862;BME280;34681;49.188;-0.374;2023-11-19T12:28:17;101292.28;;;18.19;58.30
48862;BME280;34681;49.188;-0.374;2023-11-19T12:30:43;101284.63;;;18.29;58.09
48862;BME280;34681;49.188;-0.374;2023-11-19T12:33:09;101283.06;;;17.95;58.55
48862;BME280;34681;49.188;-0.374;2023-11-19T12:35:43;101285.66;;;18.05;58.66
48862;BME280;34681;49.188;-0.374;2023-11-19T12:38:18;101278.25;;;17.98;58.50
48862;BME280;34681;49.188;-0.374;2023-11-19T12:40:44;101270.69;;;18.14;58.49
48862;BME280;34681;49.188;-0.374;2023-11-19T12:43:09;101274.47;;;18.21;58.52
48862;BME280;34681;49.188;-0.374;2023-11-19T12:45:35;101269.16;;;18.35;58.04
48862;BME280;34681;49.188;-0.374;2023-11-19T12:48:08;101285.53;;;18.21;58.37
48862;BME280;34681;49.188;-0.374;2023-11-19T12:50:54;101264.84;;;18.32;57.89
48862;BME280;34681;49.188;-0.374;2023-11-19T12:53:22;101274.94;;;18.25;57.29
48862;BME280;34681;49.188;-0.374;2023-11-19T12:55:48;101286.16;;;18.32;57.37
48862;BME280;34681;49.188;-0.374;2023-11-19T12:58:33;101284.91;;;18.34;56.94
48862;BME280;34681;49.188;-0.374;2023-11-19T13:01:03;101284.44;;;18.53;57.00